Terminal Aerodrome Forecast
Issued by NWS

Home | Current Version | Previous Version | Graphics & Text | Print | Product List | Glossary On
Versions: 1 2 3 4 5 6 7 8 9 10 11 12 13 14 15 16 17
000
FTUS41 KCLE 210523
TAFFDY
TAF
KFDY 210523Z 2106/2206 16010KT 6SM -SHRA VCTS SCT018 OVC080CB
      TEMPO 2106/2110 VRB20G35KT 3SM -TSRA BKN018CB
     FM211000 15010KT 6SM -SHRA BR BKN025 OVC100
     FM211500 22014G22KT P6SM BKN025
     FM212000 23014G22KT P6SM VCTS SCT025 BKN050CB
     FM212200 25014KT P6SM BKN035=

USA.gov is the U.S. government's official web portal to all federal, state and local government web resources and services.